This is the latest recevied weather packets stored in our database for station/object W1MWS-13. If no packets are shown the sender has not sent any weather packets the latest 10 day(s).
| Time | Temp. | Humidity | Pressure | Rain* | Wind** | Luminosity | Snow |
|---|---|---|---|---|---|---|---|
| 1777863805 | 3.89° C | 77% | 1010.3 hPa | 0 mm | - | - | - |
| 1777859618 | 5° C | 75% | 1010 hPa | 0 mm | - | - | - |
| 1777859307 | 5° C | 75% | 1010 hPa | 0 mm | - | - | - |
| 1777858411 | 5.56° C | 73% | 1009.8 hPa | 0 mm | - | - | - |
| 1777856007 | 7.22° C | 63% | 1009.3 hPa | 0 mm | - | - | - |
| 1777853596 | 9.44° C | 55% | 1008.8 hPa | 0 mm | - | - | - |
| 1777851796 | 10.56° C | 52% | 1008.5 hPa | 0 mm | - | - | - |
| 1777851511 | 10.56° C | 52% | 1008.5 hPa | 0 mm | - | - | - |
| 1777851209 | 10.56° C | 51% | 1008.5 hPa | 0 mm | - | - | - |
| 1777849106 | 11.11° C | 49% | 1008.1 hPa | 0 mm | - | - | - |
| 1777847604 | 11.67° C | 47% | 1007.6 hPa | 0 mm | - | - | - |
| 1777842500 | 11.67° C | 47% | 1006.6 hPa | 0 mm | - | - | - |
| 1777842201 | 11.67° C | 47% | 1006.6 hPa | 0 mm | - | - | - |
| 1777841000 | 11.67° C | 47% | 1006.3 hPa | 0 mm | - | - | - |
| 1777839801 | 12.22° C | 47% | 1006.2 hPa | 0 mm | - | - | - |
| 1777838913 | 12.22° C | 46% | 1006.1 hPa | 0 mm | - | - | - |
| 1777833512 | 12.78° C | 53% | 1006.2 hPa | 0 mm | - | - | - |
| 1777832603 | 11.67° C | 55% | 1006.2 hPa | 0 mm | - | - | - |
| 1777829001 | 11.11° C | 63% | 1006.4 hPa | 0 mm | - | - | - |
| 1777828730 | 11.11° C | 64% | 1006.5 hPa | 0 mm | - | - | - |
| 1777827505 | 11.11° C | 62% | 1006.3 hPa | 0 mm | - | - | - |
| 1777826305 | 11.11° C | 62% | 1006.4 hPa | 0 mm | - | - | - |
| 1777823904 | 8.89° C | 69% | 1006.7 hPa | 0 mm | - | - | - |
| 1777817901 | 7.78° C | 88% | 1006.9 hPa | 0 mm | - | - | - |
| 1777816410 | 6.11° C | 99% | 1007.2 hPa | 0 mm | - | - | - |
* Rain latest hour (hover to see other rain measurements)
** Current wind speed in m/s (hover to see current wind gust speed)